sensor_id;sensor_type;location;lat;lon;timestamp;pressure;altitude;pressure_sealevel;temperature;humidity
5126;BME280;63008;53.112;8.896;2023-03-17T00:01:52;101051.47;;;6.70;60.45
5126;BME280;63008;53.112;8.896;2023-03-17T00:03:54;101041.34;;;6.71;60.79
5126;BME280;63008;53.112;8.896;2023-03-17T00:05:57;101038.63;;;6.71;60.84
5126;BME280;63008;53.112;8.896;2023-03-17T00:08:03;101043.78;;;6.72;60.89
5126;BME280;63008;53.112;8.896;2023-03-17T00:10:12;101031.66;;;6.65;61.13
5126;BME280;63008;53.112;8.896;2023-03-17T00:12:13;101036.19;;;6.69;60.84
5126;BME280;63008;53.112;8.896;2023-03-17T00:14:15;101031.84;;;6.68;61.21
5126;BME280;63008;53.112;8.896;2023-03-17T00:16:22;101032.75;;;6.64;60.85
5126;BME280;63008;53.112;8.896;2023-03-17T00:18:24;101028.09;;;6.64;60.98
5126;BME280;63008;53.112;8.896;2023-03-17T00:20:27;101039.81;;;6.65;60.79
5126;BME280;63008;53.112;8.896;2023-03-17T00:22:29;101041.66;;;6.69;60.89
5126;BME280;63008;53.112;8.896;2023-03-17T00:24:30;101039.72;;;6.70;61.13
5126;BME280;63008;53.112;8.896;2023-03-17T00:26:31;101042.56;;;6.65;61.15
5126;BME280;63008;53.112;8.896;2023-03-17T00:28:33;101040.94;;;6.64;61.01
5126;BME280;63008;53.112;8.896;2023-03-17T00:30:34;101036.88;;;6.61;61.63
5126;BME280;63008;53.112;8.896;2023-03-17T00:32:36;101029.22;;;6.63;61.34
5126;BME280;63008;53.112;8.896;2023-03-17T00:34:39;101042.84;;;6.63;61.43
5126;BME280;63008;53.112;8.896;2023-03-17T00:36:41;101041.53;;;6.61;61.64
5126;BME280;63008;53.112;8.896;2023-03-17T00:38:43;101044.28;;;6.61;62.03
5126;BME280;63008;53.112;8.896;2023-03-17T00:40:44;101043.53;;;6.55;61.83
5126;BME280;63008;53.112;8.896;2023-03-17T00:42:46;101048.50;;;6.53;62.07
5126;BME280;63008;53.112;8.896;2023-03-17T00:44:47;101054.00;;;6.48;62.32
5126;BME280;63008;53.112;8.896;2023-03-17T00:46:48;101053.63;;;6.55;62.01
5126;BME280;63008;53.112;8.896;2023-03-17T00:48:55;101047.97;;;6.51;62.15
5126;BME280;63008;53.112;8.896;2023-03-17T00:50:56;101055.56;;;6.54;62.49
5126;BME280;63008;53.112;8.896;2023-03-17T00:52:57;101043.94;;;6.49;62.37
5126;BME280;63008;53.112;8.896;2023-03-17T00:54:58;101051.09;;;6.45;62.83
5126;BME280;63008;53.112;8.896;2023-03-17T00:56:59;101042.69;;;6.41;62.97
5126;BME280;63008;53.112;8.896;2023-03-17T00:59:00;101034.00;;;6.39;62.83
5126;BME280;63008;53.112;8.896;2023-03-17T01:01:02;101031.91;;;6.36;63.29
5126;BME280;63008;53.112;8.896;2023-03-17T01:03:03;101022.28;;;6.39;63.10
5126;BME280;63008;53.112;8.896;2023-03-17T01:05:04;101008.59;;;6.44;63.42
5126;BME280;63008;53.112;8.896;2023-03-17T01:07:07;101010.50;;;6.43;63.07
5126;BME280;63008;53.112;8.896;2023-03-17T01:09:13;101007.16;;;6.46;63.08
5126;BME280;63008;53.112;8.896;2023-03-17T01:11:17;101012.00;;;6.49;63.39
5126;BME280;63008;53.112;8.896;2023-03-17T01:13:19;101003.94;;;6.44;63.12
5126;BME280;63008;53.112;8.896;2023-03-17T01:15:21;101006.88;;;6.48;63.25
5126;BME280;63008;53.112;8.896;2023-03-17T01:17:22;101012.63;;;6.46;62.99
5126;BME280;63008;53.112;8.896;2023-03-17T01:19:23;101005.25;;;6.47;63.46
5126;BME280;63008;53.112;8.896;2023-03-17T01:21:24;101007.78;;;6.43;63.44
5126;BME280;63008;53.112;8.896;2023-03-17T01:23:25;101014.34;;;6.42;63.42
5126;BME280;63008;53.112;8.896;2023-03-17T01:25:27;101010.78;;;6.42;63.47
5126;BME280;63008;53.112;8.896;2023-03-17T01:27:33;101011.38;;;6.39;63.34
5126;BME280;63008;53.112;8.896;2023-03-17T01:29:34;101024.03;;;6.48;63.51
5126;BME280;63008;53.112;8.896;2023-03-17T01:31:35;101009.16;;;6.41;63.50
5126;BME280;63008;53.112;8.896;2023-03-17T01:33:37;101006.53;;;6.36;63.75
5126;BME280;63008;53.112;8.896;2023-03-17T01:35:39;101002.41;;;6.38;63.97
5126;BME280;63008;53.112;8.896;2023-03-17T01:37:40;100999.88;;;6.42;63.54
5126;BME280;63008;53.112;8.896;2023-03-17T01:39:42;101001.09;;;6.36;63.59
5126;BME280;63008;53.112;8.896;2023-03-17T01:41:43;100995.13;;;6.34;63.79
5126;BME280;63008;53.112;8.896;2023-03-17T01:43:45;100993.41;;;6.38;64.05
5126;BME280;63008;53.112;8.896;2023-03-17T01:48:25;100988.88;;;6.33;64.51
5126;BME280;63008;53.112;8.896;2023-03-17T01:50:28;100994.31;;;6.33;63.94
5126;BME280;63008;53.112;8.896;2023-03-17T01:52:30;100990.78;;;6.33;64.03
5126;BME280;63008;53.112;8.896;2023-03-17T01:54:42;101000.38;;;6.30;64.58
5126;BME280;63008;53.112;8.896;2023-03-17T01:56:45;101005.53;;;6.32;64.31
5126;BME280;63008;53.112;8.896;2023-03-17T01:58:51;101001.69;;;6.33;64.37
5126;BME280;63008;53.112;8.896;2023-03-17T02:00:54;100989.69;;;6.34;64.22
5126;BME280;63008;53.112;8.896;2023-03-17T02:02:55;100990.50;;;6.34;64.26
5126;BME280;63008;53.112;8.896;2023-03-17T02:04:57;100990.28;;;6.31;64.35
5126;BME280;63008;53.112;8.896;2023-03-17T02:06:58;101000.06;;;6.32;64.46
5126;BME280;63008;53.112;8.896;2023-03-17T02:08:59;101004.19;;;6.29;64.59
5126;BME280;63008;53.112;8.896;2023-03-17T02:11:01;101003.09;;;6.30;64.73
5126;BME280;63008;53.112;8.896;2023-03-17T02:13:05;101000.69;;;6.29;64.57
5126;BME280;63008;53.112;8.896;2023-03-17T02:15:07;100989.69;;;6.34;64.32
5126;BME280;63008;53.112;8.896;2023-03-17T02:17:09;100982.34;;;6.34;64.32
5126;BME280;63008;53.112;8.896;2023-03-17T02:19:10;100977.91;;;6.38;64.66
5126;BME280;63008;53.112;8.896;2023-03-17T02:22:12;100970.31;;;6.35;64.29
5126;BME280;63008;53.112;8.896;2023-03-17T02:23:54;100967.59;;;6.35;64.69
5126;BME280;63008;53.112;8.896;2023-03-17T02:25:56;100973.94;;;6.31;64.68
5126;BME280;63008;53.112;8.896;2023-03-17T02:28:01;100968.50;;;6.31;64.72
5126;BME280;63008;53.112;8.896;2023-03-17T02:30:06;100955.88;;;6.35;64.25
5126;BME280;63008;53.112;8.896;2023-03-17T02:32:09;100982.84;;;6.36;64.69
5126;BME280;63008;53.112;8.896;2023-03-17T02:34:10;100980.69;;;6.33;64.84
5126;BME280;63008;53.112;8.896;2023-03-17T02:36:11;100983.22;;;6.30;64.75
5126;BME280;63008;53.112;8.896;2023-03-17T02:38:12;100983.50;;;6.28;65.06
5126;BME280;63008;53.112;8.896;2023-03-17T02:40:14;100972.94;;;6.27;64.91
5126;BME280;63008;53.112;8.896;2023-03-17T02:42:15;100974.63;;;6.23;65.20
5126;BME280;63008;53.112;8.896;2023-03-17T02:44:16;100971.31;;;6.26;65.02
5126;BME280;63008;53.112;8.896;2023-03-17T02:46:17;100965.03;;;6.25;65.04
5126;BME280;63008;53.112;8.896;2023-03-17T02:48:18;100959.69;;;6.20;65.01
5126;BME280;63008;53.112;8.896;2023-03-17T02:50:21;100950.41;;;6.21;65.14
5126;BME280;63008;53.112;8.896;2023-03-17T02:52:24;100944.47;;;6.19;64.65
5126;BME280;63008;53.112;8.896;2023-03-17T02:54:25;100938.69;;;6.21;64.94
5126;BME280;63008;53.112;8.896;2023-03-17T02:56:26;100926.06;;;6.25;64.72
5126;BME280;63008;53.112;8.896;2023-03-17T02:58:27;100927.72;;;6.26;65.09
5126;BME280;63008;53.112;8.896;2023-03-17T03:00:28;100912.16;;;6.26;65.30
5126;BME280;63008;53.112;8.896;2023-03-17T03:02:29;100902.97;;;6.22;65.23
5126;BME280;63008;53.112;8.896;2023-03-17T03:04:30;100895.91;;;6.08;65.61
5126;BME280;63008;53.112;8.896;2023-03-17T03:06:32;100902.75;;;6.05;65.66
5126;BME280;63008;53.112;8.896;2023-03-17T03:08:33;100911.53;;;6.02;65.82
5126;BME280;63008;53.112;8.896;2023-03-17T03:10:34;100920.59;;;5.98;66.02
5126;BME280;63008;53.112;8.896;2023-03-17T03:12:35;100925.16;;;6.02;65.88
5126;BME280;63008;53.112;8.896;2023-03-17T03:14:36;100930.88;;;6.01;65.70
5126;BME280;63008;53.112;8.896;2023-03-17T03:16:38;100928.16;;;6.01;65.92
5126;BME280;63008;53.112;8.896;2023-03-17T03:18:39;100941.06;;;5.95;65.96
5126;BME280;63008;53.112;8.896;2023-03-17T03:20:43;100935.59;;;5.95;66.04
5126;BME280;63008;53.112;8.896;2023-03-17T03:22:45;100927.94;;;5.97;65.85
5126;BME280;63008;53.112;8.896;2023-03-17T03:24:46;100931.06;;;5.91;66.45
5126;BME280;63008;53.112;8.896;2023-03-17T03:26:47;100933.81;;;5.91;66.30
5126;BME280;63008;53.112;8.896;2023-03-17T03:28:48;100942.47;;;5.93;66.40
5126;BME280;63008;53.112;8.896;2023-03-17T03:30:49;100938.94;;;5.92;66.27
5126;BME280;63008;53.112;8.896;2023-03-17T03:32:50;100941.75;;;5.87;66.44
5126;BME280;63008;53.112;8.896;2023-03-17T03:34:51;100938.41;;;5.90;66.49
5126;BME280;63008;53.112;8.896;2023-03-17T03:36:52;100930.13;;;5.82;66.30
5126;BME280;63008;53.112;8.896;2023-03-17T03:38:53;100930.41;;;5.80;66.63
5126;BME280;63008;53.112;8.896;2023-03-17T03:40:54;100918.78;;;5.75;66.91
5126;BME280;63008;53.112;8.896;2023-03-17T03:42:55;100904.56;;;5.78;66.74
5126;BME280;63008;53.112;8.896;2023-03-17T03:44:56;100901.50;;;5.84;67.06
5126;BME280;63008;53.112;8.896;2023-03-17T03:46:57;100904.56;;;5.78;66.82
5126;BME280;63008;53.112;8.896;2023-03-17T03:48:58;100906.47;;;5.77;66.80
5126;BME280;63008;53.112;8.896;2023-03-17T03:51:00;100911.13;;;5.77;66.96
5126;BME280;63008;53.112;8.896;2023-03-17T03:53:01;100908.47;;;5.72;67.25
5126;BME280;63008;53.112;8.896;2023-03-17T03:55:03;100919.16;;;5.68;67.58
5126;BME280;63008;53.112;8.896;2023-03-17T03:57:04;100903.13;;;5.67;67.30
5126;BME280;63008;53.112;8.896;2023-03-17T03:59:05;100906.94;;;5.66;67.40
5126;BME280;63008;53.112;8.896;2023-03-17T04:01:08;100913.00;;;5.63;67.69
5126;BME280;63008;53.112;8.896;2023-03-17T04:03:09;100911.38;;;5.62;67.76
5126;BME280;63008;53.112;8.896;2023-03-17T04:05:10;100899.97;;;5.60;67.46
5126;BME280;63008;53.112;8.896;2023-03-17T04:07:12;100911.16;;;5.58;67.71
5126;BME280;63008;53.112;8.896;2023-03-17T04:09:13;100896.16;;;5.61;67.65
5126;BME280;63008;53.112;8.896;2023-03-17T04:11:14;100907.31;;;5.59;67.72
5126;BME280;63008;53.112;8.896;2023-03-17T04:13:15;100897.84;;;5.57;67.98
5126;BME280;63008;53.112;8.896;2023-03-17T04:15:17;100894.81;;;5.58;67.82
5126;BME280;63008;53.112;8.896;2023-03-17T04:17:19;100898.66;;;5.57;68.03
5126;BME280;63008;53.112;8.896;2023-03-17T04:19:20;100889.19;;;5.55;68.03
5126;BME280;63008;53.112;8.896;2023-03-17T04:21:24;100889.97;;;5.55;68.44
5126;BME280;63008;53.112;8.896;2023-03-17T04:23:25;100907.41;;;5.54;68.30
5126;BME280;63008;53.112;8.896;2023-03-17T04:25:27;100897.63;;;5.53;68.01
5126;BME280;63008;53.112;8.896;2023-03-17T04:27:28;100896.91;;;5.48;68.56
5126;BME280;63008;53.112;8.896;2023-03-17T04:29:29;100896.69;;;5.44;68.60
5126;BME280;63008;53.112;8.896;2023-03-17T04:31:30;100890.72;;;5.42;68.64
5126;BME280;63008;53.112;8.896;2023-03-17T04:33:32;100898.59;;;5.44;68.35
5126;BME280;63008;53.112;8.896;2023-03-17T04:35:33;100903.22;;;5.43;68.79
5126;BME280;63008;53.112;8.896;2023-03-17T04:37:34;100901.31;;;5.44;68.65
5126;BME280;63008;53.112;8.896;2023-03-17T04:39:35;100896.16;;;5.42;68.87
5126;BME280;63008;53.112;8.896;2023-03-17T04:41:37;100894.28;;;5.43;68.82
5126;BME280;63008;53.112;8.896;2023-03-17T04:43:45;100890.13;;;5.45;68.42
5126;BME280;63008;53.112;8.896;2023-03-17T04:45:46;100881.41;;;5.48;68.31
5126;BME280;63008;53.112;8.896;2023-03-17T04:47:47;100887.41;;;5.45;68.63
5126;BME280;63008;53.112;8.896;2023-03-17T04:49:48;100875.22;;;5.43;68.68
5126;BME280;63008;53.112;8.896;2023-03-17T04:51:49;100866.84;;;5.39;68.70
5126;BME280;63008;53.112;8.896;2023-03-17T04:53:50;100867.34;;;5.41;68.88
5126;BME280;63008;53.112;8.896;2023-03-17T04:55:52;100864.34;;;5.43;68.54
5126;BME280;63008;53.112;8.896;2023-03-17T04:57:53;100880.94;;;5.41;68.74
5126;BME280;63008;53.112;8.896;2023-03-17T04:59:54;100865.94;;;5.44;68.55
5126;BME280;63008;53.112;8.896;2023-03-17T05:01:54;100873.28;;;5.43;68.37
5126;BME280;63008;53.112;8.896;2023-03-17T05:03:56;100879.84;;;5.42;68.71
5126;BME280;63008;53.112;8.896;2023-03-17T05:05:57;100868.16;;;5.42;68.84
5126;BME280;63008;53.112;8.896;2023-03-17T05:07:58;100862.13;;;5.45;68.34
5126;BME280;63008;53.112;8.896;2023-03-17T05:10:01;100859.19;;;5.41;68.69
5126;BME280;63008;53.112;8.896;2023-03-17T05:12:02;100855.34;;;5.42;68.76
5126;BME280;63008;53.112;8.896;2023-03-17T05:14:03;100851.84;;;5.42;68.62
5126;BME280;63008;53.112;8.896;2023-03-17T05:16:05;100852.34;;;5.44;68.64
5126;BME280;63008;53.112;8.896;2023-03-17T05:18:07;100853.47;;;5.43;68.80
5126;BME280;63008;53.112;8.896;2023-03-17T05:20:09;100848.00;;;5.43;68.80
5126;BME280;63008;53.112;8.896;2023-03-17T05:22:10;100854.75;;;5.45;68.84
5126;BME280;63008;53.112;8.896;2023-03-17T05:24:11;100854.75;;;5.45;68.59
5126;BME280;63008;53.112;8.896;2023-03-17T05:26:12;100851.53;;;5.43;68.72
5126;BME280;63008;53.112;8.896;2023-03-17T05:28:13;100864.63;;;5.41;68.71
5126;BME280;63008;53.112;8.896;2023-03-17T05:30:14;100856.19;;;5.43;68.79
5126;BME280;63008;53.112;8.896;2023-03-17T05:32:16;100862.72;;;5.42;68.89
5126;BME280;63008;53.112;8.896;2023-03-17T05:34:18;100852.72;;;5.37;68.93
5126;BME280;63008;53.112;8.896;2023-03-17T05:36:19;100855.44;;;5.37;68.78
5126;BME280;63008;53.112;8.896;2023-03-17T05:38:21;100859.50;;;5.40;68.72
5126;BME280;63008;53.112;8.896;2023-03-17T05:40:22;100865.22;;;5.38;68.97
5126;BME280;63008;53.112;8.896;2023-03-17T05:42:26;100852.44;;;5.39;69.06
5126;BME280;63008;53.112;8.896;2023-03-17T05:44:27;100852.44;;;5.39;68.71
5126;BME280;63008;53.112;8.896;2023-03-17T05:46:28;100851.63;;;5.38;68.72
5126;BME280;63008;53.112;8.896;2023-03-17T05:48:29;100843.97;;;5.40;69.08
5126;BME280;63008;53.112;8.896;2023-03-17T05:50:30;100857.56;;;5.40;68.82
5126;BME280;63008;53.112;8.896;2023-03-17T05:52:31;100848.63;;;5.40;69.21
5126;BME280;63008;53.112;8.896;2023-03-17T05:54:32;100846.19;;;5.38;69.03
5126;BME280;63008;53.112;8.896;2023-03-17T05:56:33;100844.28;;;5.39;68.94
5126;BME280;63008;53.112;8.896;2023-03-17T05:58:34;100848.00;;;5.43;69.33
5126;BME280;63008;53.112;8.896;2023-03-17T06:00:36;100855.34;;;5.42;68.95
5126;BME280;63008;53.112;8.896;2023-03-17T06:02:37;100867.84;;;5.43;68.75
5126;BME280;63008;53.112;8.896;2023-03-17T06:04:41;100863.97;;;5.49;68.67
5126;BME280;63008;53.112;8.896;2023-03-17T06:06:42;100861.66;;;5.56;68.18
5126;BME280;63008;53.112;8.896;2023-03-17T06:08:43;100862.09;;;5.63;68.40
5126;BME280;63008;53.112;8.896;2023-03-17T06:10:45;100861.28;;;5.63;68.45
5126;BME280;63008;53.112;8.896;2023-03-17T06:12:47;100867.22;;;5.65;68.58
5126;BME280;63008;53.112;8.896;2023-03-17T06:14:47;100866.13;;;5.66;68.21
5126;BME280;63008;53.112;8.896;2023-03-17T06:16:51;100862.59;;;5.65;68.16
5126;BME280;63008;53.112;8.896;2023-03-17T06:18:52;100856.56;;;5.68;68.03
5126;BME280;63008;53.112;8.896;2023-03-17T06:20:53;100850.78;;;5.70;68.05
5126;BME280;63008;53.112;8.896;2023-03-17T06:22:54;100846.19;;;5.70;68.23
5126;BME280;63008;53.112;8.896;2023-03-17T06:24:55;100851.53;;;5.75;67.80
5126;BME280;63008;53.112;8.896;2023-03-17T06:26:56;100849.63;;;5.76;67.76
5126;BME280;63008;53.112;8.896;2023-03-17T06:28:57;100856.63;;;5.82;67.66
5126;BME280;63008;53.112;8.896;2023-03-17T06:30:58;100861.66;;;5.88;67.69
5126;BME280;63008;53.112;8.896;2023-03-17T06:33:00;100872.19;;;5.95;67.58
5126;BME280;63008;53.112;8.896;2023-03-17T06:35:01;100864.19;;;5.98;67.13
5126;BME280;63008;53.112;8.896;2023-03-17T06:37:03;100873.41;;;6.02;67.03
5126;BME280;63008;53.112;8.896;2023-03-17T06:39:04;100867.34;;;6.05;66.93
5126;BME280;63008;53.112;8.896;2023-03-17T06:41:05;100863.50;;;6.06;67.20
5126;BME280;63008;53.112;8.896;2023-03-17T06:43:06;100865.63;;;6.09;66.97
5126;BME280;63008;53.112;8.896;2023-03-17T06:45:08;100865.53;;;6.14;66.80
5126;BME280;63008;53.112;8.896;2023-03-17T06:47:09;100876.34;;;6.19;66.53
5126;BME280;63008;53.112;8.896;2023-03-17T06:49:10;100880.56;;;6.25;66.23
5126;BME280;63008;53.112;8.896;2023-03-17T06:51:13;100876.97;;;6.30;66.26
5126;BME280;63008;53.112;8.896;2023-03-17T06:53:14;100869.16;;;6.37;66.04
5126;BME280;63008;53.112;8.896;2023-03-17T06:55:15;100867.38;;;6.46;65.49
5126;BME280;63008;53.112;8.896;2023-03-17T06:57:17;100866.16;;;6.52;65.58
5126;BME280;63008;53.112;8.896;2023-03-17T06:59:19;100863.31;;;6.57;65.41
5126;BME280;63008;53.112;8.896;2023-03-17T07:01:20;100876.72;;;6.67;65.11
5126;BME280;63008;53.112;8.896;2023-03-17T07:03:21;100872.00;;;6.72;64.83
5126;BME280;63008;53.112;8.896;2023-03-17T07:05:23;100868.44;;;6.72;64.60
5126;BME280;63008;53.112;8.896;2023-03-17T07:07:25;100868.44;;;6.72;64.51
5126;BME280;63008;53.112;8.896;2023-03-17T07:09:26;100877.63;;;6.76;64.70
5126;BME280;63008;53.112;8.896;2023-03-17T07:11:27;100875.91;;;6.80;63.87
5126;BME280;63008;53.112;8.896;2023-03-17T07:13:29;100878.31;;;6.81;64.13
5126;BME280;63008;53.112;8.896;2023-03-17T07:15:35;100875.81;;;6.85;64.73
5126;BME280;63008;53.112;8.896;2023-03-17T07:17:37;100875.88;;;6.93;64.09
5126;BME280;63008;53.112;8.896;2023-03-17T07:19:38;100873.03;;;6.98;63.89
5126;BME280;63008;53.112;8.896;2023-03-17T07:21:39;100867.78;;;7.02;63.92
5126;BME280;63008;53.112;8.896;2023-03-17T07:23:40;100867.53;;;7.12;63.63
5126;BME280;63008;53.112;8.896;2023-03-17T07:25:41;100859.88;;;7.14;63.49
5126;BME280;63008;53.112;8.896;2023-03-17T07:27:43;100865.06;;;7.23;63.09
5126;BME280;63008;53.112;8.896;2023-03-17T07:29:44;100860.19;;;7.34;62.40
5126;BME280;63008;53.112;8.896;2023-03-17T07:31:45;100858.63;;;7.41;62.04
5126;BME280;63008;53.112;8.896;2023-03-17T07:33:46;100860.00;;;7.52;62.25
5126;BME280;63008;53.112;8.896;2023-03-17T07:35:48;100869.97;;;7.57;61.84
5126;BME280;63008;53.112;8.896;2023-03-17T07:37:49;100875.13;;;7.58;62.05
5126;BME280;63008;53.112;8.896;2023-03-17T07:39:50;100877.13;;;7.66;61.65
5126;BME280;63008;53.112;8.896;2023-03-17T07:41:51;100874.75;;;7.73;61.37
5126;BME280;63008;53.112;8.896;2023-03-17T07:43:55;100872.72;;;7.79;61.55
5126;BME280;63008;53.112;8.896;2023-03-17T07:45:57;100872.88;;;7.82;61.55
5126;BME280;63008;53.112;8.896;2023-03-17T07:47:58;100878.22;;;7.87;61.03
5126;BME280;63008;53.112;8.896;2023-03-17T07:49:59;100880.53;;;7.94;61.10
5126;BME280;63008;53.112;8.896;2023-03-17T07:52:00;100884.72;;;8.00;61.19
5126;BME280;63008;53.112;8.896;2023-03-17T07:54:01;100880.72;;;8.06;61.00
5126;BME280;63008;53.112;8.896;2023-03-17T07:56:07;100874.50;;;8.14;61.14
5126;BME280;63008;53.112;8.896;2023-03-17T07:58:08;100876.00;;;8.20;61.24
5126;BME280;63008;53.112;8.896;2023-03-17T08:00:09;100874.13;;;8.29;60.45
5126;BME280;63008;53.112;8.896;2023-03-17T08:02:14;100878.53;;;8.38;60.55
5126;BME280;63008;53.112;8.896;2023-03-17T08:04:16;100878.22;;;8.48;59.62
5126;BME280;63008;53.112;8.896;2023-03-17T08:06:16;100865.06;;;8.59;59.06
5126;BME280;63008;53.112;8.896;2023-03-17T08:08:18;100863.47;;;8.66;59.27
5126;BME280;63008;53.112;8.896;2023-03-17T08:10:21;100874.13;;;8.76;59.05
5126;BME280;63008;53.112;8.896;2023-03-17T08:12:23;100872.38;;;8.89;58.20
5126;BME280;63008;53.112;8.896;2023-03-17T08:14:24;100873.50;;;8.96;58.12
5126;BME280;63008;53.112;8.896;2023-03-17T08:16:25;100856.44;;;8.99;58.05
5126;BME280;63008;53.112;8.896;2023-03-17T08:18:27;100864.66;;;9.07;57.86
5126;BME280;63008;53.112;8.896;2023-03-17T08:20:28;100864.69;;;9.16;57.64
5126;BME280;63008;53.112;8.896;2023-03-17T08:22:29;100855.34;;;9.25;57.56
5126;BME280;63008;53.112;8.896;2023-03-17T08:24:30;100856.63;;;9.36;57.09
5126;BME280;63008;53.112;8.896;2023-03-17T08:26:32;100849.53;;;9.44;57.10
5126;BME280;63008;53.112;8.896;2023-03-17T08:28:34;100844.69;;;9.49;56.60
5126;BME280;63008;53.112;8.896;2023-03-17T08:30:35;100836.31;;;9.54;56.11
5126;BME280;63008;53.112;8.896;2023-03-17T08:32:37;100843.41;;;9.55;55.94
5126;BME280;63008;53.112;8.896;2023-03-17T08:34:38;100836.97;;;9.60;56.18
5126;BME280;63008;53.112;8.896;2023-03-17T08:36:39;100839.03;;;9.71;56.32
5126;BME280;63008;53.112;8.896;2023-03-17T08:38:41;100844.78;;;9.87;56.33
5126;BME280;63008;53.112;8.896;2023-03-17T08:40:42;100844.28;;;9.93;55.46
5126;BME280;63008;53.112;8.896;2023-03-17T08:42:44;100835.88;;;9.98;55.40
5126;BME280;63008;53.112;8.896;2023-03-17T08:44:45;100828.00;;;10.05;55.23
5126;BME280;63008;53.112;8.896;2023-03-17T08:46:46;100827.06;;;10.30;55.46
5126;BME280;63008;53.112;8.896;2023-03-17T08:48:50;100829.44;;;10.69;54.07
5126;BME280;63008;53.112;8.896;2023-03-17T08:50:51;100831.09;;;11.11;52.92
5126;BME280;63008;53.112;8.896;2023-03-17T08:52:52;100826.69;;;11.30;51.79
5126;BME280;63008;53.112;8.896;2023-03-17T08:54:53;100824.63;;;11.48;51.85
5126;BME280;63008;53.112;8.896;2023-03-17T08:56:56;100832.66;;;11.53;51.76
5126;BME280;63008;53.112;8.896;2023-03-17T08:58:57;100835.84;;;11.75;51.76
5126;BME280;63008;53.112;8.896;2023-03-17T09:00:59;100828.66;;;11.95;50.71
5126;BME280;63008;53.112;8.896;2023-03-17T09:03:00;100840.41;;;12.28;50.48
5126;BME280;63008;53.112;8.896;2023-03-17T09:05:04;100840.66;;;12.47;50.17
5126;BME280;63008;53.112;8.896;2023-03-17T09:07:06;100840.09;;;12.65;49.54
5126;BME280;63008;53.112;8.896;2023-03-17T09:09:07;100850.97;;;12.62;49.07
5126;BME280;63008;53.112;8.896;2023-03-17T09:11:08;100847.53;;;12.76;49.44
5126;BME280;63008;53.112;8.896;2023-03-17T09:13:10;100847.31;;;12.70;48.82
5126;BME280;63008;53.112;8.896;2023-03-17T09:15:11;100854.44;;;12.59;49.36
5126;BME280;63008;53.112;8.896;2023-03-17T09:17:12;100852.34;;;12.44;49.10
5126;BME280;63008;53.112;8.896;2023-03-17T09:19:14;100847.16;;;12.06;50.24
5126;BME280;63008;53.112;8.896;2023-03-17T09:21:16;100845.44;;;12.02;50.88
5126;BME280;63008;53.112;8.896;2023-03-17T09:23:17;100844.28;;;12.03;51.18
5126;BME280;63008;53.112;8.896;2023-03-17T09:25:18;100826.72;;;11.95;51.05
5126;BME280;63008;53.112;8.896;2023-03-17T09:27:19;100830.13;;;11.80;51.23
5126;BME280;63008;53.112;8.896;2023-03-17T09:29:20;100829.06;;;11.73;52.23
5126;BME280;63008;53.112;8.896;2023-03-17T09:31:24;100830.44;;;11.67;51.85
5126;BME280;63008;53.112;8.896;2023-03-17T09:33:25;100829.91;;;11.73;52.01
5126;BME280;63008;53.112;8.896;2023-03-17T09:35:27;100818.75;;;12.14;51.24
5126;BME280;63008;53.112;8.896;2023-03-17T09:37:28;100829.44;;;12.52;50.73
5126;BME280;63008;53.112;8.896;2023-03-17T09:39:29;100828.56;;;12.87;49.38
5126;BME280;63008;53.112;8.896;2023-03-17T09:41:39;100839.38;;;13.43;48.95
5126;BME280;63008;53.112;8.896;2023-03-17T09:51:13;100828.78;;;14.31;46.67
5126;BME280;63008;53.112;8.896;2023-03-17T09:53:25;100826.97;;;14.54;45.93
5126;BME280;63008;53.112;8.896;2023-03-17T09:55:31;100837.75;;;14.59;46.00
5126;BME280;63008;53.112;8.896;2023-03-17T09:57:38;100831.53;;;14.62;45.50
5126;BME280;63008;53.112;8.896;2023-03-17T09:59:42;100846.81;;;14.75;46.49
5126;BME280;63008;53.112;8.896;2023-03-17T10:01:43;100847.34;;;14.80;45.52
5126;BME280;63008;53.112;8.896;2023-03-17T10:03:46;100830.91;;;14.87;45.25
5126;BME280;63008;53.112;8.896;2023-03-17T10:05:47;100834.63;;;14.95;45.78
5126;BME280;63008;53.112;8.896;2023-03-17T10:08:16;100830.59;;;15.08;45.15
5126;BME280;63008;53.112;8.896;2023-03-17T10:10:41;100831.59;;;15.53;45.36
5126;BME280;63008;53.112;8.896;2023-03-17T10:13:01;100830.50;;;15.58;44.28
5126;BME280;63008;53.112;8.896;2023-03-17T10:15:19;100826.34;;;15.67;44.80
5126;BME280;63008;53.112;8.896;2023-03-17T10:17:27;100824.72;;;15.85;43.57
5126;BME280;63008;53.112;8.896;2023-03-17T10:20:04;100815.56;;;15.81;43.51
5126;BME280;63008;53.112;8.896;2023-03-17T10:22:19;100820.28;;;15.81;44.19
5126;BME280;63008;53.112;8.896;2023-03-17T10:24:22;100823.13;;;15.84;44.05
5126;BME280;63008;53.112;8.896;2023-03-17T10:26:43;100831.50;;;16.10;43.65
5126;BME280;63008;53.112;8.896;2023-03-17T10:28:45;100832.16;;;16.23;42.12
5126;BME280;63008;53.112;8.896;2023-03-17T10:30:46;100838.59;;;16.52;42.00
5126;BME280;63008;53.112;8.896;2023-03-17T10:32:48;100826.84;;;16.59;41.54
5126;BME280;63008;53.112;8.896;2023-03-17T10:34:49;100831.72;;;16.91;41.20
5126;BME280;63008;53.112;8.896;2023-03-17T10:36:58;100830.47;;;16.89;40.66
5126;BME280;63008;53.112;8.896;2023-03-17T10:39:02;100832.06;;;16.90;40.95
5126;BME280;63008;53.112;8.896;2023-03-17T10:41:07;100821.88;;;16.71;41.27
5126;BME280;63008;53.112;8.896;2023-03-17T10:43:15;100822.22;;;16.44;41.45
5126;BME280;63008;53.112;8.896;2023-03-17T10:45:25;100814.88;;;16.33;41.97
5126;BME280;63008;53.112;8.896;2023-03-17T10:47:36;100815.84;;;16.40;42.10
5126;BME280;63008;53.112;8.896;2023-03-17T10:49:37;100822.56;;;16.39;42.05
5126;BME280;63008;53.112;8.896;2023-03-17T10:51:39;100809.31;;;16.29;42.28
5126;BME280;63008;53.112;8.896;2023-03-17T10:53:41;100811.28;;;16.51;42.51
5126;BME280;63008;53.112;8.896;2023-03-17T10:55:49;100815.16;;;16.72;42.29
5126;BME280;63008;53.112;8.896;2023-03-17T10:57:53;100821.88;;;16.97;41.58
5126;BME280;63008;53.112;8.896;2023-03-17T11:00:00;100823.06;;;16.96;41.77
5126;BME280;63008;53.112;8.896;2023-03-17T11:02:14;100811.25;;;16.73;41.29
5126;BME280;63008;53.112;8.896;2023-03-17T11:04:29;100807.13;;;16.90;41.58
5126;BME280;63008;53.112;8.896;2023-03-17T11:06:40;100817.25;;;17.05;42.16
5126;BME280;63008;53.112;8.896;2023-03-17T11:08:50;100812.81;;;17.30;41.05